Airfield :
LOGIN :

Register | Disclaimer

   EN    FR    IT 

 










Legend :    VFR   Marginal VFR   IFR   Intensive IFR   Very Intensive IFR
Visi :
Ceiling :
>= 8 km
>= 3000ft
5 to 8 km
1000 to 3000 ft
1500m to 5 km
500 to 1000 ft
800 to 1500m
200 to 500 ft
< 800m
< 200 ft
Symbols :   Thunderstorms  Fog  Heavy snow  Heavy precipitations  Wind > 20 kt
SIGMETs :     Misc.  Thunderstorms  Icing  Turbulence  Mountain Waves  Volcanic Ashes







- Airport Elevation : 74 ft
- IATA code : LRH
- Download approach charts


LFBH - La Rochelle Ile de Ré

CURRENT METAR :
  • 250630Z AUTO 07011KT CAVOK 18/15 Q1018 TEMPO 08015G25KT

EXPIRED METARs :
  • 250600Z AUTO 07011KT CAVOK 18/14 Q1017 NOSIG
  • 250530Z AUTO 07010KT CAVOK 17/14 Q1017 NOSIG
  • 250500Z AUTO 08007KT CAVOK 16/14 Q1017 NOSIG
  • 250430Z AUTO 06009KT CAVOK 16/14 Q1017 NOSIG
  • 250400Z AUTO 07010KT CAVOK 17/14 Q1017 NOSIG

TAF TAF LFBH
Valid from the 25 at 06:00 until the 26 at 06:00 UTC


250500Z 2506/2606 06010KT CAVOK
TEMPO 2508/2518 08015G25KT
ATIS : +33 5 46 00 13 92
No reported NOTAMs for that airfield.



MET'MAP, your aeronautical weather chart ! - Copyright ORBIFLY December 2007 - Disclaimer

ORBIFLY MET'MAP TEAM :

Programming & Development : Alexandra Zaïnal
Concept & Development : Baudouin d'Aumeries
Co-Development & Prog : Marc-Olivier Méhu
Technical & hardware support : Manuel Goepfert

Contact : metmap@orbifly.com




SOURCES & CREDITS :

   NOAA